Time;durP1;ratioP1;P1;durP2;ratioP2;P2;SDS_P1;SDS_P2;PMS_P1;PMS_P2;Temp;Humidity;BMP_temperature;BMP_pressure;BME280_temperature;BME280_humidity;BME280_pressure;Samples;Min_cycle;Max_cycle;Signal;HPM_P1;HPM_P2
2021/08/29 00:02:23;;;;;;;6.22;1.52;;;16.20;99.90;;;;;;4999511;28;20022;-65
2021/08/29 00:04:48;;;;;;;6.78;1.00;;;16.20;99.90;;;;;;4999521;28;20038;-66
2021/08/29 00:07:14;;;;;;;6.57;1.10;;;16.20;99.90;;;;;;5000245;28;20033;-66
2021/08/29 00:09:40;;;;;;;5.57;1.30;;;16.20;99.90;;;;;;4999234;28;20589;-66
2021/08/29 00:12:06;;;;;;;3.33;1.00;;;16.20;99.90;;;;;;5000738;28;20141;-66
2021/08/29 00:14:31;;;;;;;10.82;1.27;;;16.20;99.90;;;;;;4998285;28;20387;-66
2021/08/29 00:16:57;;;;;;;10.20;1.95;;;16.20;99.90;;;;;;5000717;28;20038;-66
2021/08/29 00:19:23;;;;;;;4.85;1.60;;;16.20;99.90;;;;;;4999791;28;20041;-66
2021/08/29 00:21:48;;;;;;;4.53;0.95;;;16.20;99.90;;;;;;4999348;28;20034;-66
2021/08/29 00:24:14;;;;;;;5.80;1.55;;;16.20;99.90;;;;;;5000190;28;20586;-66
2021/08/29 00:26:39;;;;;;;7.65;0.90;;;16.30;99.90;;;;;;4998590;28;20483;-66
2021/08/29 00:29:05;;;;;;;8.98;2.00;;;16.20;99.90;;;;;;5001174;28;20030;-66
2021/08/29 00:31:30;;;;;;;3.88;1.10;;;16.20;99.90;;;;;;4998244;28;20030;-66
2021/08/29 00:33:56;;;;;;;9.00;1.35;;;16.20;99.90;;;;;;5000503;28;20072;-66
2021/08/29 00:36:21;;;;;;;6.28;1.42;;;16.20;99.90;;;;;;4998629;28;20408;-66
2021/08/29 00:38:47;;;;;;;3.75;1.10;;;16.20;99.90;;;;;;4982360;28;20035;-66
2021/08/29 00:41:13;;;;;;;9.50;1.83;;;16.20;99.90;;;;;;4984128;28;20042;-67
2021/08/29 00:43:39;;;;;;;5.35;1.20;;;16.30;99.90;;;;;;5003767;28;20033;-67
2021/08/29 00:46:06;;;;;;;7.57;1.42;;;16.30;99.90;;;;;;5001285;28;20083;-66
2021/08/29 00:48:31;;;;;;;3.90;1.25;;;16.20;99.90;;;;;;4997823;28;20457;-66
2021/08/29 00:50:57;;;;;;;6.90;1.23;;;16.20;99.90;;;;;;5000792;28;20034;-66
2021/08/29 00:53:23;;;;;;;6.22;1.35;;;16.20;99.90;;;;;;4998462;28;20485;-66
2021/08/29 00:55:52;;;;;;;6.85;1.15;;;16.20;99.90;;;;;;4999903;28;20039;-66
2021/08/29 00:58:22;;;;;;;6.18;2.20;;;16.20;99.90;;;;;;4999326;28;20425;-66
2021/08/29 01:00:49;;;;;;;14.27;2.45;;;16.20;99.90;;;;;;4999792;28;20414;-66
2021/08/29 01:03:25;;;;;;;3.25;1.13;;;16.30;99.90;;;;;;4999163;28;20359;-66
2021/08/29 01:06:19;;;;;;;12.85;1.70;;;16.20;99.90;;;;;;5000152;28;20117;-66
2021/08/29 01:08:52;;;;;;;6.32;1.48;;;16.20;99.90;;;;;;4981059;28;20049;-66
2021/08/29 01:11:23;;;;;;;5.32;1.45;;;16.20;99.90;;;;;;4999210;28;20487;-66
2021/08/29 01:13:49;;;;;;;6.75;1.40;;;16.20;99.90;;;;;;4999502;28;20038;-65
2021/08/29 01:16:20;;;;;;;3.35;1.20;;;16.20;99.90;;;;;;4999477;28;20049;-66
2021/08/29 01:18:53;;;;;;;5.45;1.30;;;16.30;99.90;;;;;;4998460;28;20042;-66
2021/08/29 01:21:28;;;;;;;5.80;1.27;;;16.30;99.90;;;;;;5000112;28;20042;-66
2021/08/29 01:23:58;;;;;;;3.58;1.35;;;16.30;99.90;;;;;;4997480;28;20142;-66
2021/08/29 01:26:47;;;;;;;4.78;1.23;;;16.20;99.90;;;;;;5000358;28;20032;-66
2021/08/29 01:29:15;;;;;;;7.90;1.63;;;16.30;99.90;;;;;;4981143;28;20038;-66
2021/08/29 01:31:42;;;;;;;9.30;1.90;;;16.20;99.90;;;;;;4999741;28;20449;-65
2021/08/29 01:34:14;;;;;;;6.00;1.50;;;16.20;99.90;;;;;;4998007;28;20065;-66
2021/08/29 01:36:42;;;;;;;6.47;1.80;;;16.30;99.90;;;;;;4998982;28;20125;-66
2021/08/29 01:39:09;;;;;;;8.55;1.67;;;16.30;99.90;;;;;;4998602;28;20050;-66
2021/08/29 01:41:37;;;;;;;5.35;1.50;;;16.30;99.90;;;;;;5003871;28;20030;-67
2021/08/29 01:44:04;;;;;;;10.15;1.40;;;16.30;99.90;;;;;;4999463;28;20049;-66
2021/08/29 01:46:33;;;;;;;4.40;1.30;;;16.20;99.90;;;;;;4997356;28;20070;-66
2021/08/29 01:48:59;;;;;;;2.15;0.90;;;16.20;99.90;;;;;;5000145;28;20037;-66
2021/08/29 01:51:25;;;;;;;6.93;1.20;;;16.30;99.90;;;;;;4996996;28;20038;-66
2021/08/29 01:53:50;;;;;;;5.90;1.38;;;16.30;99.90;;;;;;4999954;28;20088;-66
2021/08/29 01:56:16;;;;;;;5.22;1.40;;;16.30;99.90;;;;;;5000166;28;20435;-65
2021/08/29 01:58:41;;;;;;;4.95;1.20;;;16.20;99.90;;;;;;5002043;28;20026;-65
2021/08/29 02:01:12;;;;;;;4.75;1.20;;;16.30;99.90;;;;;;5002816;28;20125;-66
2021/08/29 02:03:41;;;;;;;10.10;1.60;;;16.30;99.90;;;;;;4983520;28;20054;-66
2021/08/29 02:06:12;;;;;;;5.13;1.10;;;16.30;99.90;;;;;;5002291;28;20065;-66
2021/08/29 02:08:41;;;;;;;3.70;1.27;;;16.30;99.90;;;;;;5001550;28;20137;-66
2021/08/29 02:11:08;;;;;;;2.85;1.30;;;16.30;99.90;;;;;;5002251;28;20733;-66
2021/08/29 02:13:37;;;;;;;8.43;1.20;;;16.30;99.90;;;;;;5000845;28;20064;-66
2021/08/29 02:16:11;;;;;;;4.97;1.40;;;16.20;99.90;;;;;;5002538;28;20197;-66
2021/08/29 02:18:37;;;;;;;5.22;1.02;;;16.20;99.90;;;;;;5001439;28;20089;-66
2021/08/29 02:21:04;;;;;;;5.35;1.00;;;16.20;99.90;;;;;;5002937;28;20073;-66
2021/08/29 02:23:30;;;;;;;6.22;1.30;;;16.30;99.90;;;;;;4982594;28;20490;-66
2021/08/29 02:25:57;;;;;;;8.15;1.48;;;16.30;99.90;;;;;;4985629;28;20117;-66
2021/08/29 02:28:24;;;;;;;2.75;1.15;;;16.20;99.90;;;;;;4981882;28;20065;-66
2021/08/29 02:30:50;;;;;;;5.90;1.58;;;16.20;99.90;;;;;;4985611;28;20037;-66
2021/08/29 02:33:16;;;;;;;9.27;1.25;;;16.20;99.90;;;;;;5002878;28;20093;-66
2021/08/29 02:35:43;;;;;;;5.38;1.52;;;16.20;99.90;;;;;;4983487;28;20038;-66
2021/08/29 02:38:09;;;;;;;7.07;2.03;;;16.20;99.90;;;;;;5000335;28;20085;-66
2021/08/29 02:40:38;;;;;;;4.38;1.35;;;16.20;99.90;;;;;;5006600;28;20046;-66
2021/08/29 02:43:04;;;;;;;5.00;1.27;;;16.10;99.90;;;;;;5006192;28;20034;-66
2021/08/29 02:45:30;;;;;;;3.85;1.05;;;16.10;99.90;;;;;;5000390;28;20050;-66
2021/08/29 02:47:56;;;;;;;6.05;1.33;;;16.10;99.90;;;;;;5003130;28;20456;-66
2021/08/29 02:50:22;;;;;;;5.47;1.58;;;16.10;99.90;;;;;;4999483;28;20041;-66
2021/08/29 02:52:49;;;;;;;8.18;1.30;;;16.00;99.90;;;;;;5002021;28;20071;-66
2021/08/29 02:55:15;;;;;;;5.18;1.95;;;16.00;99.90;;;;;;4998782;28;20120;-66
2021/08/29 02:57:46;;;;;;;4.15;1.58;;;15.90;99.90;;;;;;5000641;28;20644;-66
2021/08/29 03:00:12;;;;;;;;;;;15.90;99.90;;;;;;5000328;28;20030;-66
2021/08/29 03:02:38;;;;;;;5.97;1.58;;;15.90;99.90;;;;;;5000766;28;20003;-66
2021/08/29 03:05:04;;;;;;;3.20;1.02;;;15.90;99.90;;;;;;5002451;28;20102;-66
2021/08/29 03:07:30;;;;;;;3.58;1.25;;;15.90;99.90;;;;;;5000713;28;20041;-66
2021/08/29 03:09:55;;;;;;;7.65;0.90;;;15.80;99.90;;;;;;4981475;28;20030;-65
2021/08/29 03:12:21;;;;;;;6.25;1.42;;;15.80;99.90;;;;;;4984653;28;20026;-66
2021/08/29 03:14:48;;;;;;;4.95;1.27;;;15.90;99.90;;;;;;4999415;28;20490;-66
2021/08/29 03:17:14;;;;;;;4.55;1.52;;;15.80;99.90;;;;;;5000526;28;20042;-65
2021/08/29 03:19:40;;;;;;;10.07;2.67;;;15.80;99.90;;;;;;5000435;28;20069;-65
2021/08/29 03:22:06;;;;;;;2.47;1.10;;;15.80;99.90;;;;;;5000745;28;20077;-66
2021/08/29 03:24:31;;;;;;;6.63;1.30;;;15.80;99.90;;;;;;5001364;28;20638;-66
2021/08/29 03:26:57;;;;;;;8.55;2.45;;;15.80;99.90;;;;;;5000065;28;20031;-66
2021/08/29 03:29:23;;;;;;;2.83;1.08;;;15.80;99.90;;;;;;5002410;28;20045;-67
2021/08/29 03:31:48;;;;;;;10.15;1.40;;;15.80;99.90;;;;;;4999462;28;20395;-66
2021/08/29 03:34:17;;;;;;;6.55;1.40;;;15.80;99.90;;;;;;5001332;28;20049;-66
2021/08/29 03:36:43;;;;;;;8.18;1.40;;;15.80;99.90;;;;;;4999893;28;20513;-66
2021/08/29 03:39:11;;;;;;;7.38;1.48;;;15.80;99.90;;;;;;5001961;28;20203;-67
2021/08/29 03:41:39;;;;;;;5.53;1.52;;;15.80;99.90;;;;;;5006809;28;20072;-66
2021/08/29 03:44:07;;;;;;;7.03;1.58;;;15.80;99.90;;;;;;4982727;28;20509;-66
2021/08/29 03:46:33;;;;;;;5.28;1.88;;;15.90;99.90;;;;;;4981671;28;20064;-66
2021/08/29 03:48:58;;;;;;;6.70;1.27;;;15.80;99.90;;;;;;5000888;28;20038;-66
2021/08/29 03:51:25;;;;;;;6.20;1.85;;;15.80;99.90;;;;;;4998720;28;20030;-65
2021/08/29 03:53:51;;;;;;;5.00;1.27;;;15.90;99.90;;;;;;5001887;28;20030;-70
2021/08/29 03:56:16;;;;;;;5.38;1.35;;;15.90;99.90;;;;;;4997601;28;20509;-65
2021/08/29 03:58:42;;;;;;;4.88;1.10;;;15.90;99.90;;;;;;5000965;28;20038;-66
2021/08/29 04:01:08;;;;;;;5.88;1.65;;;15.90;99.90;;;;;;5000102;28;20030;-66
2021/08/29 04:03:34;;;;;;;7.43;1.40;;;15.90;99.90;;;;;;4981830;28;20061;-67
2021/08/29 04:06:01;;;;;;;6.60;1.13;;;15.90;99.90;;;;;;5000171;28;20490;-66
2021/08/29 04:08:30;;;;;;;7.20;1.25;;;16.00;99.90;;;;;;4981120;28;20034;-66
2021/08/29 04:10:59;;;;;;;6.53;1.15;;;16.00;99.90;;;;;;5000447;28;20034;-66
2021/08/29 04:13:27;;;;;;;5.50;1.17;;;16.00;99.90;;;;;;4998852;28;20026;-66
2021/08/29 04:15:53;;;;;;;3.65;1.05;;;15.90;99.90;;;;;;5000641;28;20046;-66
2021/08/29 04:18:21;;;;;;;5.10;0.85;;;16.00;99.90;;;;;;4997610;28;20050;-66
2021/08/29 04:20:47;;;;;;;6.15;0.85;;;16.00;99.90;;;;;;5000916;28;20029;-66
2021/08/29 04:23:12;;;;;;;7.80;1.42;;;16.00;99.90;;;;;;4998807;28;20540;-67
2021/08/29 04:25:39;;;;;;;3.85;1.38;;;16.00;99.90;;;;;;5000288;28;20112;-66
2021/08/29 04:28:05;;;;;;;5.90;1.55;;;16.00;99.90;;;;;;4999306;28;20038;-67
2021/08/29 04:30:31;;;;;;;5.63;1.25;;;16.00;99.90;;;;;;4999016;28;20298;-66
2021/08/29 04:32:57;;;;;;;6.65;1.27;;;16.00;99.90;;;;;;4999768;28;20736;-66
2021/08/29 04:35:22;;;;;;;8.32;0.93;;;16.00;99.90;;;;;;4997675;28;20121;-66
2021/08/29 04:37:48;;;;;;;10.98;0.95;;;16.00;99.90;;;;;;4983085;28;20022;-67
2021/08/29 04:40:14;;;;;;;8.48;1.65;;;16.00;99.90;;;;;;5003610;28;20038;-66
2021/08/29 04:42:39;;;;;;;7.47;1.17;;;16.00;99.90;;;;;;4985743;28;20035;-66
2021/08/29 04:45:05;;;;;;;10.70;1.80;;;16.00;99.90;;;;;;4998470;28;20042;-66
2021/08/29 04:47:31;;;;;;;10.77;1.30;;;16.00;99.90;;;;;;4999360;28;20092;-66
2021/08/29 04:49:56;;;;;;;7.05;1.38;;;16.00;99.90;;;;;;4982186;28;20048;-66
2021/08/29 04:52:22;;;;;;;8.75;1.05;;;16.00;99.90;;;;;;4980833;28;20030;-66
2021/08/29 04:54:47;;;;;;;9.85;0.73;;;16.00;99.90;;;;;;5000927;28;20026;-66
2021/08/29 04:57:13;;;;;;;7.50;0.90;;;16.00;99.90;;;;;;4997386;28;20042;-66
2021/08/29 04:59:39;;;;;;;6.70;1.20;;;16.00;99.90;;;;;;5000304;28;20187;-66
2021/08/29 05:02:04;;;;;;;8.35;1.00;;;16.00;99.90;;;;;;4998128;28;20041;-66
2021/08/29 05:04:30;;;;;;;10.40;2.15;;;16.00;99.90;;;;;;4999052;28;20049;-65
2021/08/29 05:06:55;;;;;;;6.38;1.50;;;16.00;99.90;;;;;;4999175;28;20046;-66
2021/08/29 05:09:21;;;;;;;6.18;0.82;;;16.00;99.90;;;;;;4997727;28;20060;-66
2021/08/29 05:11:47;;;;;;;5.88;0.90;;;16.00;99.90;;;;;;4982958;28;20034;-67
2021/08/29 05:14:12;;;;;;;7.55;1.25;;;16.00;99.90;;;;;;4997515;28;20035;-66
2021/08/29 05:16:38;;;;;;;6.13;1.33;;;16.00;99.90;;;;;;4999874;28;21784;-66
2021/08/29 05:19:03;;;;;;;9.20;1.25;;;16.00;99.90;;;;;;4998474;28;20038;-66
2021/08/29 05:21:29;;;;;;;8.70;1.83;;;16.00;99.90;;;;;;4998910;28;20053;-65
2021/08/29 05:23:54;;;;;;;12.93;2.17;;;16.00;99.90;;;;;;4999663;28;20769;-66
2021/08/29 05:26:20;;;;;;;13.48;2.45;;;16.00;99.90;;;;;;4997315;28;20397;-66
2021/08/29 05:28:45;;;;;;;13.15;2.45;;;16.10;99.90;;;;;;5001212;28;20037;-66
2021/08/29 05:31:11;;;;;;;6.78;1.02;;;16.10;99.90;;;;;;4999829;28;20085;-65
2021/08/29 05:33:37;;;;;;;7.50;1.48;;;16.10;99.90;;;;;;5004096;28;20072;-66
2021/08/29 05:36:02;;;;;;;4.38;0.70;;;16.10;99.90;;;;;;5001777;28;20371;-67
2021/08/29 05:38:28;;;;;;;4.55;0.98;;;16.10;99.90;;;;;;4985068;28;20049;-66
2021/08/29 05:40:53;;;;;;;11.57;1.35;;;16.20;99.90;;;;;;5008368;28;20108;-66
2021/08/29 05:43:19;;;;;;;3.20;0.80;;;16.20;99.90;;;;;;4984950;28;20030;-66
2021/08/29 05:45:44;;;;;;;9.90;1.27;;;16.20;99.90;;;;;;5003980;28;20030;-66
2021/08/29 05:48:10;;;;;;;8.50;0.98;;;16.20;99.90;;;;;;5000518;28;20122;-66
2021/08/29 05:50:35;;;;;;;4.95;1.00;;;16.20;99.90;;;;;;5003382;28;20057;-66
2021/08/29 05:53:01;;;;;;;4.47;0.85;;;16.20;99.90;;;;;;5001321;28;20052;-66
2021/08/29 05:55:27;;;;;;;8.57;1.20;;;16.20;99.90;;;;;;5002248;28;20038;-67
2021/08/29 05:57:52;;;;;;;12.60;1.65;;;16.20;99.90;;;;;;5002929;28;20038;-66
2021/08/29 06:00:20;;;;;;;5.30;1.00;;;16.20;99.90;;;;;;4982938;28;20046;-66
2021/08/29 06:02:45;;;;;;;10.00;1.20;;;16.20;99.90;;;;;;5003778;28;20025;-66
2021/08/29 06:05:11;;;;;;;6.70;0.93;;;16.30;99.90;;;;;;5000810;28;20399;-65
2021/08/29 06:07:37;;;;;;;9.15;0.90;;;16.30;99.90;;;;;;5002707;28;20033;-67
2021/08/29 06:10:03;;;;;;;7.03;1.20;;;16.30;99.90;;;;;;5001072;28;20038;-66
2021/08/29 06:12:29;;;;;;;6.95;1.35;;;16.30;99.90;;;;;;4986915;28;20033;-66
2021/08/29 06:14:55;;;;;;;8.13;0.70;;;16.40;99.90;;;;;;4983662;28;20136;-67
2021/08/29 06:17:20;;;;;;;5.43;1.00;;;16.40;99.90;;;;;;5002979;28;20064;-66
2021/08/29 06:19:46;;;;;;;7.82;1.15;;;16.50;99.90;;;;;;5004105;28;20240;-66
2021/08/29 06:22:11;;;;;;;14.73;2.33;;;16.40;99.90;;;;;;5002288;28;20081;-66
2021/08/29 06:24:37;;;;;;;15.45;1.35;;;16.40;99.90;;;;;;5001644;28;20034;-66
2021/08/29 06:27:03;;;;;;;8.60;0.88;;;16.50;99.90;;;;;;4984397;28;20042;-66
2021/08/29 06:29:28;;;;;;;6.35;1.33;;;16.50;99.90;;;;;;5003053;28;20494;-65
2021/08/29 06:31:55;;;;;;;5.82;0.95;;;16.50;99.90;;;;;;5001175;28;20396;-66
2021/08/29 06:34:21;;;;;;;3.45;0.93;;;16.50;99.90;;;;;;4980147;28;20497;-66
2021/08/29 06:36:48;;;;;;;7.00;1.17;;;16.50;99.90;;;;;;5000875;28;20117;-66
2021/08/29 06:39:13;;;;;;;8.98;1.90;;;16.50;99.90;;;;;;5003827;28;20067;-66
2021/08/29 06:41:39;;;;;;;5.05;1.10;;;16.50;99.90;;;;;;5000731;28;20058;-66
2021/08/29 06:44:05;;;;;;;5.50;1.00;;;16.60;99.90;;;;;;5006803;28;20033;-67
2021/08/29 06:46:31;;;;;;;10.02;1.40;;;16.60;99.90;;;;;;4982562;28;20030;-67
2021/08/29 06:48:56;;;;;;;9.68;1.20;;;16.50;99.90;;;;;;5001140;28;20414;-66
2021/08/29 06:51:22;;;;;;;11.35;1.05;;;16.60;99.90;;;;;;5001975;28;20029;-66
2021/08/29 06:53:48;;;;;;;4.65;0.85;;;16.60;99.90;;;;;;5000161;28;20027;-66
2021/08/29 06:56:13;;;;;;;11.77;1.23;;;16.60;99.90;;;;;;4993027;28;20252;-67
2021/08/29 06:58:39;;;;;;;5.93;1.27;;;16.60;99.90;;;;;;5000716;28;20500;-67
2021/08/29 07:01:05;;;;;;;6.22;2.13;;;16.70;99.90;;;;;;4995840;28;20038;-66
2021/08/29 07:03:31;;;;;;;6.57;2.05;;;16.70;99.90;;;;;;4998283;28;20038;-67
2021/08/29 07:05:56;;;;;;;7.90;1.38;;;16.70;99.90;;;;;;4981180;28;20049;-66
2021/08/29 07:08:22;;;;;;;6.13;0.95;;;16.70;99.90;;;;;;5000111;28;20120;-67
2021/08/29 07:10:47;;;;;;;8.88;1.52;;;16.70;99.90;;;;;;4998138;28;20038;-67
2021/08/29 07:13:13;;;;;;;7.40;2.45;;;16.80;99.90;;;;;;5000410;28;20042;-66
2021/08/29 07:15:38;;;;;;;4.20;0.90;;;16.70;99.90;;;;;;4983255;28;20048;-65
2021/08/29 07:18:04;;;;;;;8.07;1.52;;;16.80;99.90;;;;;;4982477;28;20091;-67
2021/08/29 07:20:30;;;;;;;8.95;1.30;;;16.80;99.90;;;;;;4998576;28;20049;-67
2021/08/29 07:22:55;;;;;;;5.22;1.00;;;16.80;99.90;;;;;;4998798;28;20058;-66
2021/08/29 07:25:21;;;;;;;2.58;0.70;;;16.80;99.90;;;;;;4999205;28;20489;-67
2021/08/29 07:27:47;;;;;;;6.28;0.75;;;16.80;99.90;;;;;;4996867;28;20041;-67
2021/08/29 07:30:12;;;;;;;4.55;1.63;;;16.80;99.90;;;;;;5000608;28;20034;-66
2021/08/29 07:32:38;;;;;;;5.13;1.20;;;16.80;99.90;;;;;;4996558;28;20048;-65
2021/08/29 07:35:05;;;;;;;7.50;1.15;;;16.90;99.90;;;;;;4996153;28;20148;-67
2021/08/29 07:37:31;;;;;;;5.97;1.08;;;17.00;99.90;;;;;;4997757;28;20425;-67
2021/08/29 07:39:56;;;;;;;4.38;0.93;;;17.00;99.90;;;;;;5001370;28;20044;-67
2021/08/29 07:42:22;;;;;;;8.50;1.38;;;17.00;99.90;;;;;;5002741;28;20029;-65
2021/08/29 07:44:49;;;;;;;8.75;1.15;;;17.10;99.90;;;;;;4996664;28;20129;-66
2021/08/29 07:47:15;;;;;;;5.75;1.52;;;17.10;99.90;;;;;;4998445;28;20037;-67
2021/08/29 07:49:40;;;;;;;7.28;1.02;;;17.20;99.90;;;;;;4995966;28;20045;-66
2021/08/29 07:52:06;;;;;;;6.55;1.17;;;17.20;99.90;;;;;;4995195;28;20026;-67
2021/08/29 07:54:32;;;;;;;6.88;1.17;;;17.20;99.90;;;;;;4998278;28;20037;-67
2021/08/29 07:56:57;;;;;;;5.85;1.52;;;17.20;99.90;;;;;;4990954;28;20107;-66
2021/08/29 07:59:23;;;;;;;6.28;1.25;;;17.20;99.90;;;;;;4998137;28;20030;-67
2021/08/29 08:01:49;;;;;;;6.38;1.00;;;17.30;99.90;;;;;;4996819;28;20133;-67
2021/08/29 08:04:14;;;;;;;5.38;0.77;;;17.30;99.90;;;;;;4996374;28;20065;-65
2021/08/29 08:06:40;;;;;;;5.25;1.13;;;17.30;99.90;;;;;;4997910;28;20054;-65
2021/08/29 08:09:05;;;;;;;4.50;0.95;;;17.30;99.90;;;;;;5002390;28;20449;-66
2021/08/29 08:11:31;;;;;;;3.85;1.13;;;17.30;99.90;;;;;;5001036;28;20577;-67
2021/08/29 08:13:56;;;;;;;11.85;1.48;;;17.30;99.90;;;;;;5001060;28;20060;-66
2021/08/29 08:16:22;;;;;;;5.95;1.25;;;17.30;99.90;;;;;;5004136;28;20493;-66
2021/08/29 08:18:48;;;;;;;6.25;1.05;;;17.40;99.90;;;;;;4999330;28;20038;-67
2021/08/29 08:21:13;;;;;;;9.00;1.10;;;17.30;99.90;;;;;;4999640;28;20117;-67
2021/08/29 08:23:39;;;;;;;6.72;1.13;;;17.30;99.90;;;;;;4999936;28;20084;-71
2021/08/29 08:26:07;;;;;;;11.27;1.42;;;17.20;99.90;;;;;;4997378;28;20034;-67
2021/08/29 08:28:33;;;;;;;12.95;1.00;;;17.20;99.90;;;;;;5001314;28;20034;-65
2021/08/29 08:30:58;;;;;;;8.75;1.52;;;17.20;99.90;;;;;;4997850;28;20122;-67
2021/08/29 08:33:24;;;;;;;6.00;1.45;;;17.20;99.90;;;;;;4999776;28;20042;-65
2021/08/29 08:35:49;;;;;;;7.72;1.15;;;17.20;99.90;;;;;;5004294;28;20490;-67
2021/08/29 08:38:15;;;;;;;5.90;1.48;;;17.30;99.90;;;;;;4991723;28;20025;-67
2021/08/29 08:40:42;;;;;;;8.00;1.25;;;17.30;99.90;;;;;;5002939;28;20394;-66
2021/08/29 08:43:09;;;;;;;7.10;1.30;;;17.30;99.90;;;;;;4998981;28;20030;-66
2021/08/29 08:45:35;;;;;;;7.15;1.17;;;17.30;99.90;;;;;;5000942;28;20034;-66
2021/08/29 08:48:03;;;;;;;3.55;1.20;;;17.30;99.90;;;;;;4997368;28;20054;-67
2021/08/29 08:50:31;;;;;;;10.73;1.95;;;17.40;99.90;;;;;;5000766;28;20034;-66
2021/08/29 08:52:59;;;;;;;5.20;1.20;;;17.40;99.90;;;;;;5000512;28;20038;-67
2021/08/29 08:55:25;;;;;;;4.25;0.75;;;17.60;99.90;;;;;;4997935;28;20041;-65
2021/08/29 08:57:52;;;;;;;6.15;1.38;;;17.50;99.90;;;;;;4999008;28;20042;-65
2021/08/29 09:00:18;;;;;;;6.40;0.90;;;17.60;99.90;;;;;;5000273;28;20064;-66
2021/08/29 09:02:46;;;;;;;9.57;1.65;;;17.50;99.90;;;;;;5018297;28;20018;-66
2021/08/29 09:05:11;;;;;;;4.38;1.27;;;17.50;99.90;;;;;;5005501;28;20088;-66
2021/08/29 09:07:37;;;;;;;7.13;2.33;;;17.40;99.90;;;;;;5004392;28;20670;-66
2021/08/29 09:10:03;;;;;;;10.35;1.15;;;17.40;99.90;;;;;;5007762;28;20042;-67
2021/08/29 09:12:29;;;;;;;10.00;1.17;;;17.40;99.90;;;;;;5002853;28;20026;-67
2021/08/29 09:14:57;;;;;;;27.10;1.75;;;17.40;99.90;;;;;;5004101;28;20100;-66
2021/08/29 09:17:37;;;;;;;9.98;2.08;;;17.40;99.90;;;;;;5004318;28;20517;-66
2021/08/29 09:20:32;;;;;;;5.78;0.90;;;17.30;99.90;;;;;;5003320;28;20030;-67
2021/08/29 09:23:00;;;;;;;8.02;1.00;;;17.30;99.90;;;;;;5006242;28;20199;-66
2021/08/29 09:25:28;;;;;;;6.60;2.22;;;17.40;99.90;;;;;;5003827;28;20113;-65
2021/08/29 09:27:56;;;;;;;4.97;0.80;;;17.40;99.90;;;;;;4988209;28;20112;-66
2021/08/29 09:30:24;;;;;;;6.53;0.95;;;17.50;99.90;;;;;;4986739;28;20037;-67
2021/08/29 09:32:53;;;;;;;8.23;0.93;;;17.50;99.90;;;;;;5005512;28;20560;-66
2021/08/29 09:35:22;;;;;;;5.07;1.50;;;17.50;99.90;;;;;;4990990;28;20090;-67
2021/08/29 09:37:48;;;;;;;7.43;1.38;;;17.60;99.90;;;;;;4987484;28;20061;-66
2021/08/29 09:40:16;;;;;;;9.70;1.65;;;17.60;99.90;;;;;;5006635;28;20031;-66
2021/08/29 09:42:44;;;;;;;4.45;0.80;;;17.60;99.90;;;;;;5005812;28;20392;-65
2021/08/29 09:45:18;;;;;;;11.95;1.63;;;17.60;99.90;;;;;;5003239;28;20096;-67
2021/08/29 09:47:43;;;;;;;5.50;0.90;;;17.70;99.90;;;;;;5004562;28;20038;-66
2021/08/29 09:50:13;;;;;;;6.00;0.85;;;17.80;99.90;;;;;;5006044;28;20564;-66
2021/08/29 09:52:39;;;;;;;6.63;1.17;;;17.90;99.90;;;;;;5003693;28;20050;-66
2021/08/29 09:55:05;;;;;;;7.07;1.20;;;17.90;99.90;;;;;;5005572;28;20088;-66
2021/08/29 09:57:32;;;;;;;6.90;1.10;;;17.90;99.90;;;;;;5002331;28;20040;-67
2021/08/29 09:59:58;;;;;;;8.75;1.08;;;17.90;99.90;;;;;;5002332;28;20038;-67
2021/08/29 10:02:28;;;;;;;9.18;1.90;;;18.00;99.90;;;;;;5003109;28;20039;-67
2021/08/29 10:05:18;;;;;;;6.40;1.58;;;17.90;99.90;;;;;;5005694;28;20030;-67
2021/08/29 10:07:57;;;;;;;7.43;0.98;;;17.80;99.90;;;;;;4993752;28;20035;-67
2021/08/29 10:10:27;;;;;;;8.07;1.55;;;17.70;99.90;;;;;;5004384;28;20031;-65
2021/08/29 10:12:53;;;;;;;6.50;1.35;;;17.70;99.90;;;;;;5005738;28;20045;-67
2021/08/29 10:15:20;;;;;;;5.32;1.40;;;17.70;99.90;;;;;;5002894;28;20037;-67
2021/08/29 10:17:46;;;;;;;6.88;1.40;;;17.70;99.90;;;;;;5006075;28;20027;-67
2021/08/29 10:20:17;;;;;;;8.98;1.30;;;17.70;99.90;;;;;;5004284;28;20375;-66
2021/08/29 10:22:43;;;;;;;4.88;1.10;;;17.60;99.90;;;;;;5006033;28;20092;-66
2021/08/29 10:25:10;;;;;;;12.13;1.58;;;17.70;99.90;;;;;;5003602;28;20041;-66
2021/08/29 10:27:39;;;;;;;8.77;1.33;;;17.70;99.90;;;;;;5004452;28;20149;-66
2021/08/29 10:30:08;;;;;;;5.70;1.10;;;17.60;99.90;;;;;;5002937;28;20038;-67
2021/08/29 10:32:45;;;;;;;8.38;1.67;;;17.60;99.90;;;;;;5004776;28;20030;-67
2021/08/29 10:35:15;;;;;;;7.63;1.00;;;17.60;99.90;;;;;;5003663;28;20521;-67
2021/08/29 10:37:46;;;;;;;9.02;1.38;;;17.70;99.90;;;;;;5003519;28;20049;-67
2021/08/29 10:40:14;;;;;;;10.38;1.92;;;17.70;99.90;;;;;;5004013;28;20085;-67
2021/08/29 10:42:42;;;;;;;10.02;1.30;;;17.80;99.90;;;;;;5005010;28;20041;-66
2021/08/29 10:45:09;;;;;;;5.82;1.50;;;17.80;99.90;;;;;;5004174;28;20050;-66
2021/08/29 10:47:37;;;;;;;9.07;1.63;;;17.70;99.90;;;;;;5002548;28;20030;-67
2021/08/29 10:50:05;;;;;;;9.90;1.48;;;17.70;99.90;;;;;;5003686;28;20490;-66
2021/08/29 10:52:34;;;;;;;6.18;0.95;;;17.70;99.90;;;;;;5005488;28;20037;-67
2021/08/29 10:55:06;;;;;;;6.43;1.20;;;17.70;99.90;;;;;;5001465;28;20034;-67
2021/08/29 10:57:42;;;;;;;7.43;1.10;;;17.70;99.90;;;;;;5004535;28;20119;-67
2021/08/29 11:00:17;;;;;;;6.03;0.80;;;17.70;99.90;;;;;;5002468;28;20502;-66
2021/08/29 11:02:48;;;;;;;8.15;1.35;;;17.60;99.90;;;;;;5003335;28;20026;-66
2021/08/29 11:05:15;;;;;;;;;;;17.60;99.90;;;;;;5003797;28;20045;-66
2021/08/29 11:07:40;;;;;;;9.73;1.48;;;17.60;99.90;;;;;;5002608;28;20397;-67
2021/08/29 11:10:08;;;;;;;6.40;1.15;;;17.60;99.90;;;;;;5006031;28;20070;-66
2021/08/29 11:12:34;;;;;;;7.00;1.38;;;17.60;99.90;;;;;;4991550;28;20037;-66
2021/08/29 11:15:03;;;;;;;11.00;1.90;;;17.60;99.90;;;;;;5002715;28;20057;-66
2021/08/29 11:17:34;;;;;;;9.25;1.52;;;17.60;99.90;;;;;;4987156;28;20088;-67
2021/08/29 11:20:02;;;;;;;9.25;1.85;;;17.60;99.90;;;;;;5005176;28;20034;-68
2021/08/29 11:22:37;;;;;;;14.00;1.95;;;17.60;99.90;;;;;;5003029;28;20514;-66
2021/08/29 11:25:15;;;;;;;7.32;1.23;;;17.60;99.90;;;;;;4987425;28;20398;-66
2021/08/29 11:27:52;;;;;;;11.43;1.63;;;17.50;99.90;;;;;;4985916;28;20042;-66
2021/08/29 11:30:42;;;;;;;8.35;1.10;;;17.60;99.90;;;;;;5002144;28;20045;-67
2021/08/29 11:33:24;;;;;;;8.55;1.33;;;17.60;99.90;;;;;;4993790;28;20089;-66
2021/08/29 11:35:51;;;;;;;14.43;1.75;;;17.60;99.90;;;;;;5005505;28;20129;-67
2021/08/29 11:38:35;;;;;;;7.63;1.65;;;17.60;99.90;;;;;;5004188;28;20383;-66
2021/08/29 11:41:11;;;;;;;6.93;1.30;;;17.70;99.90;;;;;;5009613;28;20083;-66
2021/08/29 11:43:45;;;;;;;8.57;1.58;;;17.70;99.90;;;;;;5002650;28;20022;-67
2021/08/29 11:46:14;;;;;;;5.95;1.25;;;17.80;99.90;;;;;;5002491;28;20050;-67
2021/08/29 11:49:00;;;;;;;8.98;1.58;;;17.80;99.90;;;;;;5003238;28;20033;-66
2021/08/29 11:51:49;;;;;;;5.88;1.30;;;17.90;99.90;;;;;;5000769;28;20036;-67
2021/08/29 11:54:20;;;;;;;9.77;1.33;;;17.90;99.90;;;;;;5002185;28;20041;-67
2021/08/29 11:56:45;;;;;;;6.32;1.45;;;17.90;99.90;;;;;;5003859;28;20070;-66
2021/08/29 11:59:12;;;;;;;5.68;1.00;;;17.90;99.90;;;;;;4984735;28;20038;-67
2021/08/29 12:01:38;;;;;;;11.10;1.73;;;17.90;99.90;;;;;;4985280;28;20101;-67
2021/08/29 12:04:05;;;;;;;10.82;1.38;;;17.80;99.90;;;;;;5004521;28;20039;-67
2021/08/29 12:06:41;;;;;;;5.43;1.08;;;17.90;99.90;;;;;;5003006;28;20088;-66
2021/08/29 12:09:27;;;;;;;6.65;1.38;;;17.90;99.90;;;;;;5004100;28;20517;-67
2021/08/29 12:11:53;;;;;;;9.63;1.73;;;17.80;99.90;;;;;;5004824;28;20049;-66
2021/08/29 12:14:22;;;;;;;4.85;1.23;;;17.70;99.90;;;;;;5000681;28;20120;-66
2021/08/29 12:16:57;;;;;;;6.50;1.27;;;17.70;99.90;;;;;;5003555;28;20299;-66
2021/08/29 12:19:34;;;;;;;6.90;1.45;;;17.60;99.90;;;;;;5000030;28;20054;-66
2021/08/29 12:22:02;;;;;;;9.00;1.35;;;17.60;99.90;;;;;;5000574;28;20042;-66
2021/08/29 12:24:34;;;;;;;9.20;1.80;;;17.60;99.90;;;;;;5003284;28;20069;-66
2021/08/29 12:27:06;;;;;;;9.25;1.48;;;17.70;99.90;;;;;;5001375;28;20038;-67
2021/08/29 12:29:45;;;;;;;6.00;0.90;;;17.70;99.90;;;;;;5002778;28;20040;-65
2021/08/29 12:32:14;;;;;;;3.97;1.17;;;17.60;99.90;;;;;;4984453;28;20072;-71
2021/08/29 12:34:40;;;;;;;9.77;1.52;;;17.50;99.90;;;;;;5016424;28;20507;-67
2021/08/29 12:37:10;;;;;;;9.88;1.55;;;17.50;99.90;;;;;;5001670;28;20465;-65
2021/08/29 12:39:36;;;;;;;8.07;1.73;;;17.40;99.90;;;;;;5019494;28;20057;-66
2021/08/29 12:42:17;;;;;;;5.70;1.25;;;17.40;99.90;;;;;;5001918;28;20506;-66
2021/08/29 12:44:43;;;;;;;6.07;1.33;;;17.40;99.90;;;;;;4999474;28;20062;-66
2021/08/29 12:47:09;;;;;;;7.53;1.25;;;17.50;99.90;;;;;;4999211;28;20454;-67
2021/08/29 12:49:35;;;;;;;7.50;1.30;;;17.60;99.90;;;;;;5001316;28;20026;-66